Time;durP1;ratioP1;P1;durP2;ratioP2;P2;SDS_P1;SDS_P2;PMS_P1;PMS_P2;Temp;Humidity;BMP_temperature;BMP_pressure;BME280_temperature;BME280_humidity;BME280_pressure;Samples;Min_cycle;Max_cycle;Signal;HPM_P1;HPM_P2
2022/11/03 00:01:44;;;;;;;33.08;18.83;;;;;;;;;;4902312;29;20204;-43
2022/11/03 00:04:13;;;;;;;31.08;17.42;;;;;;;;;;4902040;29;20324;-45
2022/11/03 00:06:41;;;;;;;31.92;16.77;;;;;;;;;;4902067;29;20205;-43
2022/11/03 00:09:11;;;;;;;33.80;18.50;;;;;;;;;;4902050;29;20261;-43
2022/11/03 00:11:40;;;;;;;31.27;16.88;;;;;;;;;;4902212;29;20220;-43
2022/11/03 00:14:08;;;;;;;35.80;17.25;;;;;;;;;;4902009;29;20338;-43
2022/11/03 00:16:35;;;;;;;41.42;17.67;;;;;;;;;;4901864;29;20560;-43
2022/11/03 00:19:04;;;;;;;33.58;15.35;;;;;;;;;;4902012;29;20213;-43
2022/11/03 00:21:31;;;;;;;33.85;15.90;;;;;;;;;;4902440;29;20201;-44
2022/11/03 00:24:01;;;;;;;34.60;15.73;;;;;;;;;;4901946;29;20233;-43
2022/11/03 00:26:30;;;;;;;30.23;16.23;;;;;;;;;;4901911;29;20201;-43
2022/11/03 00:29:00;;;;;;;29.15;15.30;;;;;;;;;;4902128;29;20217;-44
2022/11/03 00:31:34;;;;;;;32.13;16.95;;;;;;;;;;4902247;29;20277;-43
2022/11/03 00:34:03;;;;;;;31.10;16.08;;;;;;;;;;4900980;29;20552;-44
2022/11/03 00:36:37;;;;;;;37.40;16.35;;;;;;;;;;4901726;29;20205;-43
2022/11/03 00:39:05;;;;;;;33.17;15.75;;;;;;;;;;4901572;29;20362;-45
2022/11/03 00:41:32;;;;;;;32.00;15.60;;;;;;;;;;4901923;29;20205;-44
2022/11/03 00:43:59;;;;;;;31.70;13.85;;;;;;;;;;4901338;29;20225;-43
2022/11/03 00:46:29;;;;;;;29.95;14.25;;;;;;;;;;4901419;29;20225;-46
2022/11/03 00:48:56;;;;;;;27.88;14.07;;;;;;;;;;4901510;29;20232;-43
2022/11/03 00:51:29;;;;;;;26.52;14.43;;;;;;;;;;4901415;29;20220;-44
2022/11/03 00:53:57;;;;;;;35.78;15.35;;;;;;;;;;4901730;29;20213;-43
2022/11/03 00:56:30;;;;;;;26.70;14.20;;;;;;;;;;4901451;29;20236;-45
2022/11/03 00:58:59;;;;;;;30.00;13.88;;;;;;;;;;4901435;29;20208;-44
2022/11/03 01:01:29;;;;;;;27.92;14.90;;;;;;;;;;4901322;29;20269;-44
2022/11/03 01:06:48;;;;;;;31.63;14.02;;;;;;;;;;4901363;29;20261;-43
2022/11/03 01:09:23;;;;;;;36.90;14.50;;;;;;;;;;4901522;29;20592;-43
2022/11/03 01:12:05;;;;;;;30.73;13.70;;;;;;;;;;4901184;29;20237;-43
2022/11/03 01:14:45;;;;;;;26.67;13.57;;;;;;;;;;4884769;29;20240;-44
2022/11/03 01:17:19;;;;;;;34.72;14.25;;;;;;;;;;4900905;29;20213;-42
2022/11/03 01:19:47;;;;;;;35.75;13.25;;;;;;;;;;4901347;29;20215;-43
2022/11/03 01:22:14;;;;;;;25.45;13.13;;;;;;;;;;4900998;29;20224;-43
2022/11/03 01:24:42;;;;;;;28.55;12.95;;;;;;;;;;4900891;29;20244;-43
2022/11/03 01:27:15;;;;;;;29.83;13.38;;;;;;;;;;4900487;29;20660;-43
2022/11/03 01:29:42;;;;;;;30.95;14.10;;;;;;;;;;4900499;29;20228;-44
2022/11/03 01:32:09;;;;;;;28.85;13.98;;;;;;;;;;4900503;29;20514;-43
2022/11/03 01:34:37;;;;;;;33.72;17.92;;;;;;;;;;4900702;29;20218;-43
2022/11/03 01:37:04;;;;;;;32.95;15.52;;;;;;;;;;4900639;29;20205;-43
2022/11/03 01:39:31;;;;;;;42.90;22.40;;;;;;;;;;4900593;29;20206;-43
2022/11/03 01:41:58;;;;;;;36.75;21.00;;;;;;;;;;4900643;29;20209;-43
2022/11/03 01:44:26;;;;;;;40.28;18.52;;;;;;;;;;4900256;29;20305;-44
2022/11/03 01:47:01;;;;;;;80.50;26.88;;;;;;;;;;4900532;29;20220;-44
2022/11/03 01:50:02;;;;;;;39.60;17.95;;;;;;;;;;4899824;29;20217;-45
2022/11/03 01:52:48;;;;;;;53.53;21.73;;;;;;;;;;4871746;29;20206;-43
2022/11/03 01:55:19;;;;;;;41.25;17.05;;;;;;;;;;4884157;29;20212;-43
2022/11/03 01:57:55;;;;;;;51.42;21.25;;;;;;;;;;4884454;29;20209;-44
2022/11/03 02:00:22;;;;;;;41.58;17.58;;;;;;;;;;4900199;29;20293;-43
2022/11/03 02:02:49;;;;;;;38.67;16.85;;;;;;;;;;4910271;29;20200;-43
2022/11/03 02:05:17;;;;;;;33.03;15.98;;;;;;;;;;4919366;29;20243;-44
2022/11/03 02:07:49;;;;;;;32.10;16.33;;;;;;;;;;4919456;29;20205;-43
2022/11/03 02:10:16;;;;;;;33.70;16.77;;;;;;;;;;4902915;29;20208;-43
2022/11/03 02:12:44;;;;;;;41.05;18.65;;;;;;;;;;4902347;29;20216;-44
2022/11/03 02:15:12;;;;;;;32.83;16.20;;;;;;;;;;4919157;29;20264;-44
2022/11/03 02:17:41;;;;;;;38.45;16.45;;;;;;;;;;4902538;29;20212;-43
2022/11/03 02:20:12;;;;;;;35.40;16.70;;;;;;;;;;4902536;29;20228;-43
2022/11/03 02:22:42;;;;;;;31.27;15.60;;;;;;;;;;4918764;29;20637;-44
2022/11/03 02:25:30;;;;;;;33.70;14.60;;;;;;;;;;4918701;29;20537;-44
2022/11/03 02:27:57;;;;;;;42.47;17.13;;;;;;;;;;4919402;29;20196;-43
2022/11/03 02:30:27;;;;;;;28.40;15.40;;;;;;;;;;4902231;29;20614;-43
2022/11/03 02:33:04;;;;;;;36.72;15.63;;;;;;;;;;4918622;29;20257;-44
2022/11/03 02:35:47;;;;;;;33.15;17.13;;;;;;;;;;4902585;29;20200;-43
2022/11/03 02:38:16;;;;;;;35.08;16.52;;;;;;;;;;4918666;29;20225;-43
2022/11/03 02:40:48;;;;;;;31.38;15.90;;;;;;;;;;4902030;29;20215;-44
2022/11/03 02:43:15;;;;;;;32.25;16.35;;;;;;;;;;4902197;29;20209;-43
2022/11/03 02:45:44;;;;;;;31.38;14.60;;;;;;;;;;4918275;29;20233;-43
2022/11/03 02:48:14;;;;;;;36.47;15.65;;;;;;;;;;4901818;29;20276;-43
2022/11/03 02:50:41;;;;;;;32.13;16.48;;;;;;;;;;4902455;29;20209;-43
2022/11/03 02:53:12;;;;;;;32.10;14.88;;;;;;;;;;4918510;29;20217;-44
2022/11/03 02:55:59;;;;;;;30.88;14.60;;;;;;;;;;4918783;29;20232;-43
2022/11/03 02:58:36;;;;;;;31.25;14.00;;;;;;;;;;4922311;29;20208;-43
2022/11/03 03:01:20;;;;;;;30.05;14.88;;;;;;;;;;4906578;29;20220;-43
2022/11/03 03:03:51;;;;;;;34.95;15.32;;;;;;;;;;4922052;29;20636;-43
2022/11/03 03:06:23;;;;;;;27.80;14.48;;;;;;;;;;4906111;29;20207;-43
2022/11/03 03:08:58;;;;;;;31.67;15.50;;;;;;;;;;4922211;29;20624;-43
2022/11/03 03:11:37;;;;;;;33.00;15.48;;;;;;;;;;4906550;29;20208;-44
2022/11/03 03:14:09;;;;;;;31.10;14.43;;;;;;;;;;4922207;29;20266;-43
2022/11/03 03:16:59;;;;;;;29.85;13.15;;;;;;;;;;4922167;29;20529;-44
2022/11/03 03:20:02;;;;;;;33.23;15.70;;;;;;;;;;4921713;29;20227;-43
2022/11/03 03:22:43;;;;;;;55.47;18.75;;;;;;;;;;4922108;29;20201;-43
2022/11/03 03:25:29;;;;;;;33.03;15.50;;;;;;;;;;4905579;29;20248;-43
2022/11/03 03:28:08;;;;;;;30.13;13.30;;;;;;;;;;4905506;29;20205;-43
2022/11/03 03:30:35;;;;;;;31.80;11.98;;;;;;;;;;4905314;29;20219;-42
2022/11/03 03:33:04;;;;;;;25.77;12.65;;;;;;;;;;4905175;29;20280;-44
2022/11/03 03:35:32;;;;;;;29.63;13.13;;;;;;;;;;4905427;29;20208;-44
2022/11/03 03:38:03;;;;;;;28.83;11.90;;;;;;;;;;4905195;29;20197;-43
2022/11/03 03:40:34;;;;;;;27.33;11.02;;;;;;;;;;4889528;29;20254;-42
2022/11/03 03:43:03;;;;;;;29.58;12.23;;;;;;;;;;4905411;29;20217;-44
2022/11/03 03:45:31;;;;;;;26.08;12.32;;;;;;;;;;4921272;29;20263;-43
2022/11/03 03:47:58;;;;;;;24.85;11.80;;;;;;;;;;4921353;29;20264;-42
2022/11/03 03:50:29;;;;;;;28.20;11.13;;;;;;;;;;4921531;29;20205;-44
2022/11/03 03:52:57;;;;;;;27.25;10.88;;;;;;;;;;4904730;29;20219;-44
2022/11/03 03:55:37;;;;;;;22.80;10.90;;;;;;;;;;4905176;29;20290;-45
2022/11/03 03:58:05;;;;;;;23.77;10.55;;;;;;;;;;4921421;29;20205;-44
2022/11/03 04:00:33;;;;;;;24.88;11.10;;;;;;;;;;4921033;29;20613;-44
2022/11/03 04:03:00;;;;;;;21.48;10.35;;;;;;;;;;4921033;29;20204;-43
2022/11/03 04:05:27;;;;;;;19.73;10.38;;;;;;;;;;4920979;29;20224;-43
2022/11/03 04:07:54;;;;;;;23.60;10.15;;;;;;;;;;4921033;29;20232;-43
2022/11/03 04:10:22;;;;;;;28.73;10.23;;;;;;;;;;4921051;29;20227;-43
2022/11/03 04:23:57;;;;;;;28.30;10.13;;;;;;;;;;4920637;29;20252;-45
2022/11/03 04:26:25;;;;;;;20.92;9.40;;;;;;;;;;4914209;29;20544;-44
2022/11/03 04:28:53;;;;;;;22.77;9.57;;;;;;;;;;4901649;29;20212;-43
2022/11/03 04:31:20;;;;;;;22.90;10.13;;;;;;;;;;4914871;29;20217;-42
2022/11/03 04:33:48;;;;;;;23.15;9.23;;;;;;;;;;4927629;29;20540;-42
2022/11/03 04:36:20;;;;;;;21.58;9.63;;;;;;;;;;4913223;29;20216;-43
2022/11/03 04:38:47;;;;;;;21.52;8.93;;;;;;;;;;4930950;29;20270;-43
2022/11/03 04:41:26;;;;;;;21.10;9.27;;;;;;;;;;4928632;29;20218;-43
2022/11/03 04:43:54;;;;;;;27.08;9.07;;;;;;;;;;4909215;29;20204;-43
2022/11/03 04:46:26;;;;;;;19.15;9.02;;;;;;;;;;4912246;29;20224;-43
2022/11/03 04:48:55;;;;;;;15.07;8.75;;;;;;;;;;4919971;29;20201;-43
2022/11/03 04:51:24;;;;;;;24.70;9.70;;;;;;;;;;4927617;29;20197;-43
2022/11/03 04:54:18;;;;;;;21.88;8.73;;;;;;;;;;4930752;29;20223;-43
2022/11/03 04:56:45;;;;;;;22.85;9.30;;;;;;;;;;4927359;29;20223;-43
2022/11/03 04:59:13;;;;;;;19.15;9.65;;;;;;;;;;4923828;29;20213;-43
2022/11/03 05:01:42;;;;;;;18.43;9.20;;;;;;;;;;4924228;29;20225;-43
2022/11/03 05:04:15;;;;;;;23.50;9.07;;;;;;;;;;4930576;29;20225;-41
2022/11/03 05:06:50;;;;;;;20.25;9.13;;;;;;;;;;4919171;29;20225;-43
2022/11/03 05:09:22;;;;;;;17.48;8.35;;;;;;;;;;4902325;29;20231;-41
2022/11/03 05:11:49;;;;;;;19.30;9.27;;;;;;;;;;4913668;29;20235;-42
2022/11/03 05:14:21;;;;;;;21.53;8.43;;;;;;;;;;4931661;29;20267;-43
2022/11/03 05:16:52;;;;;;;21.35;9.18;;;;;;;;;;4921713;29;20686;-43
2022/11/03 05:19:21;;;;;;;21.52;8.75;;;;;;;;;;4931858;29;20275;-43
2022/11/03 05:21:49;;;;;;;21.27;8.82;;;;;;;;;;4937850;29;20236;-45
2022/11/03 05:24:18;;;;;;;25.40;8.95;;;;;;;;;;4929840;29;20259;-45
2022/11/03 05:26:45;;;;;;;15.60;7.78;;;;;;;;;;4910704;29;20587;-43
2022/11/03 05:29:34;;;;;;;20.30;8.20;;;;;;;;;;4918229;29;20255;-44
2022/11/03 05:32:01;;;;;;;23.15;8.35;;;;;;;;;;4923684;29;20252;-44
2022/11/03 05:34:29;;;;;;;17.70;8.27;;;;;;;;;;4917181;29;20288;-42
2022/11/03 05:37:21;;;;;;;20.50;8.40;;;;;;;;;;4917285;29;20275;-43
2022/11/03 05:39:57;;;;;;;22.30;8.07;;;;;;;;;;4902460;29;20283;-43
2022/11/03 05:42:30;;;;;;;16.13;9.18;;;;;;;;;;4922122;29;20664;-44
2022/11/03 05:44:58;;;;;;;18.10;7.90;;;;;;;;;;4924443;29;20224;-41
2022/11/03 05:47:33;;;;;;;19.98;8.20;;;;;;;;;;4917075;29;20224;-44
2022/11/03 05:50:19;;;;;;;17.23;7.90;;;;;;;;;;4903378;29;20224;-41
2022/11/03 05:52:48;;;;;;;18.30;8.30;;;;;;;;;;4926805;29;20244;-43
2022/11/03 05:55:34;;;;;;;19.67;8.00;;;;;;;;;;4903010;29;20291;-45
2022/11/03 05:58:18;;;;;;;14.87;7.80;;;;;;;;;;4910375;29;20228;-45
2022/11/03 06:00:46;;;;;;;15.20;7.50;;;;;;;;;;4900569;29;20330;-41
2022/11/03 06:03:24;;;;;;;14.07;7.87;;;;;;;;;;4918156;29;20236;-43
2022/11/03 06:05:52;;;;;;;19.02;8.75;;;;;;;;;;4917248;29;20307;-46
2022/11/03 06:08:21;;;;;;;21.00;7.78;;;;;;;;;;4906143;29;20281;-41
2022/11/03 06:10:56;;;;;;;14.43;8.18;;;;;;;;;;4902597;29;20777;-43
2022/11/03 06:13:33;;;;;;;21.60;8.43;;;;;;;;;;4898223;29;20224;-43
2022/11/03 06:16:03;;;;;;;15.80;7.10;;;;;;;;;;4918238;29;20272;-45
2022/11/03 06:18:35;;;;;;;23.37;7.63;;;;;;;;;;4884831;29;20205;-45
2022/11/03 06:21:14;;;;;;;19.60;7.97;;;;;;;;;;4927803;29;20209;-44
2022/11/03 06:23:41;;;;;;;19.00;7.37;;;;;;;;;;4937472;29;20604;-41
2022/11/03 06:26:15;;;;;;;14.93;6.90;;;;;;;;;;4935912;29;20224;-41
2022/11/03 06:28:42;;;;;;;15.57;6.67;;;;;;;;;;4935745;29;20259;-41
2022/11/03 06:31:20;;;;;;;18.15;7.78;;;;;;;;;;4918253;29;20211;-42
2022/11/03 06:33:50;;;;;;;15.10;7.43;;;;;;;;;;4936074;29;20196;-43
2022/11/03 06:36:20;;;;;;;14.83;7.53;;;;;;;;;;4919586;29;20260;-42
2022/11/03 06:39:01;;;;;;;17.07;8.50;;;;;;;;;;4919545;29;20610;-42
2022/11/03 06:41:30;;;;;;;17.17;7.50;;;;;;;;;;4937318;29;20199;-43
2022/11/03 06:44:02;;;;;;;13.57;7.37;;;;;;;;;;4921048;29;20219;-43
2022/11/03 06:46:29;;;;;;;17.13;7.30;;;;;;;;;;4921100;29;20734;-45
2022/11/03 06:48:58;;;;;;;14.63;7.40;;;;;;;;;;4937491;29;20226;-43
2022/11/03 06:51:29;;;;;;;14.05;7.30;;;;;;;;;;4937672;29;20215;-42
2022/11/03 06:54:00;;;;;;;13.75;7.03;;;;;;;;;;4937619;29;20256;-43
2022/11/03 06:56:30;;;;;;;16.92;6.97;;;;;;;;;;4921489;29;20234;-43
2022/11/03 06:58:57;;;;;;;18.80;7.15;;;;;;;;;;4921105;29;20200;-42
2022/11/03 07:01:28;;;;;;;14.63;7.00;;;;;;;;;;4937374;29;20208;-43
2022/11/03 07:04:00;;;;;;;18.10;7.40;;;;;;;;;;4937204;29;20196;-43
2022/11/03 07:06:30;;;;;;;18.70;7.82;;;;;;;;;;4921005;29;20228;-42
2022/11/03 07:08:58;;;;;;;19.38;7.53;;;;;;;;;;4937649;29;20216;-43
2022/11/03 07:11:28;;;;;;;14.65;8.07;;;;;;;;;;4936921;29;20264;-44
2022/11/03 07:13:57;;;;;;;16.77;8.05;;;;;;;;;;4920285;29;20247;-43
2022/11/03 07:16:32;;;;;;;18.65;7.38;;;;;;;;;;4920695;29;20650;-43
2022/11/03 07:19:00;;;;;;;17.05;7.15;;;;;;;;;;4937253;29;20290;-42
2022/11/03 07:21:34;;;;;;;15.85;7.82;;;;;;;;;;4937098;29;20204;-43
2022/11/03 07:24:14;;;;;;;18.75;7.90;;;;;;;;;;4937650;29;20279;-43
2022/11/03 07:26:41;;;;;;;23.13;7.72;;;;;;;;;;4921019;29;20628;-43
2022/11/03 07:29:17;;;;;;;16.35;8.02;;;;;;;;;;4937300;29;20192;-44
2022/11/03 07:31:44;;;;;;;15.10;7.25;;;;;;;;;;4937243;29;20528;-43
2022/11/03 07:34:16;;;;;;;20.00;7.07;;;;;;;;;;4920688;29;20208;-43
2022/11/03 07:36:44;;;;;;;15.57;7.05;;;;;;;;;;4937166;29;20204;-44
2022/11/03 07:39:14;;;;;;;11.95;7.00;;;;;;;;;;4920565;29;20204;-43
2022/11/03 07:41:42;;;;;;;14.30;7.35;;;;;;;;;;4937795;29;20261;-43
2022/11/03 07:44:14;;;;;;;17.73;8.05;;;;;;;;;;4940689;29;20345;-43
2022/11/03 07:46:43;;;;;;;21.52;9.80;;;;;;;;;;4924323;29;20208;-44
2022/11/03 07:49:20;;;;;;;21.55;10.52;;;;;;;;;;4940339;29;20211;-43
2022/11/03 07:51:49;;;;;;;20.52;9.73;;;;;;;;;;4924321;29;20527;-43
2022/11/03 07:54:32;;;;;;;18.30;7.38;;;;;;;;;;4940457;29;20234;-44
2022/11/03 07:57:04;;;;;;;19.90;8.23;;;;;;;;;;4940448;29;20216;-43
2022/11/03 07:59:36;;;;;;;15.43;7.85;;;;;;;;;;4940395;29;20223;-43
2022/11/03 08:02:28;;;;;;;14.20;7.03;;;;;;;;;;4923980;29;20219;-43
2022/11/03 08:04:55;;;;;;;14.35;7.40;;;;;;;;;;4939980;29;20200;-43
2022/11/03 08:07:22;;;;;;;12.38;7.40;;;;;;;;;;4940662;29;20227;-42
2022/11/03 08:09:50;;;;;;;16.70;7.85;;;;;;;;;;4907694;29;20215;-43
2022/11/03 08:12:17;;;;;;;17.13;7.85;;;;;;;;;;4939972;29;20207;-43
2022/11/03 08:14:44;;;;;;;18.83;7.63;;;;;;;;;;4924053;29;20272;-46
2022/11/03 08:17:13;;;;;;;20.27;7.43;;;;;;;;;;4920811;29;20213;-43
2022/11/03 08:19:40;;;;;;;16.98;7.22;;;;;;;;;;4904634;29;20209;-43
2022/11/03 08:22:07;;;;;;;15.40;7.40;;;;;;;;;;4921184;29;20205;-43
2022/11/03 08:24:34;;;;;;;21.52;8.27;;;;;;;;;;4920608;29;20532;-44
2022/11/03 08:27:03;;;;;;;15.02;7.30;;;;;;;;;;4904259;29;20233;-44
2022/11/03 08:29:30;;;;;;;22.73;7.82;;;;;;;;;;4888609;29;20268;-43
2022/11/03 08:31:57;;;;;;;20.65;8.15;;;;;;;;;;4920492;29;20220;-43
2022/11/03 08:34:24;;;;;;;18.73;7.78;;;;;;;;;;4920675;29;20212;-43
2022/11/03 08:36:52;;;;;;;20.55;7.22;;;;;;;;;;4904717;29;20223;-43
2022/11/03 08:39:19;;;;;;;18.77;7.55;;;;;;;;;;4920624;29;20213;-43
2022/11/03 08:41:46;;;;;;;16.80;7.45;;;;;;;;;;4888930;29;20212;-43
2022/11/03 08:44:13;;;;;;;15.40;7.90;;;;;;;;;;4920382;29;20209;-43
2022/11/03 08:46:40;;;;;;;19.70;7.43;;;;;;;;;;4920157;29;20568;-43
2022/11/03 08:49:07;;;;;;;17.23;8.18;;;;;;;;;;4921230;29;20212;-43
2022/11/03 08:51:34;;;;;;;14.15;6.60;;;;;;;;;;4920661;29;20276;-43
2022/11/03 08:54:08;;;;;;;16.48;7.10;;;;;;;;;;4904300;29;20283;-44
2022/11/03 08:56:36;;;;;;;15.48;6.90;;;;;;;;;;4920433;29;20224;-43
2022/11/03 08:59:02;;;;;;;16.98;7.63;;;;;;;;;;4920210;29;20201;-43
2022/11/03 09:01:30;;;;;;;14.30;5.97;;;;;;;;;;4920321;29;20197;-43
2022/11/03 09:03:57;;;;;;;18.88;7.10;;;;;;;;;;4903588;29;20224;-44
2022/11/03 09:06:24;;;;;;;14.35;6.97;;;;;;;;;;4903917;29;20232;-43
2022/11/03 09:08:51;;;;;;;18.13;7.45;;;;;;;;;;4919919;29;20216;-43
2022/11/03 09:11:38;;;;;;;18.73;6.97;;;;;;;;;;4919977;29;20223;-42
2022/11/03 09:14:05;;;;;;;20.48;6.65;;;;;;;;;;4919677;29;20236;-43
2022/11/03 09:16:32;;;;;;;17.75;6.75;;;;;;;;;;4903757;29;20220;-43
2022/11/03 09:18:59;;;;;;;16.27;7.30;;;;;;;;;;4919764;29;20272;-43
2022/11/03 09:21:26;;;;;;;14.93;6.50;;;;;;;;;;4919972;29;20205;-43
2022/11/03 09:23:53;;;;;;;13.48;6.97;;;;;;;;;;4919970;29;20220;-43
2022/11/03 09:26:20;;;;;;;18.15;6.47;;;;;;;;;;4919455;29;20233;-43
2022/11/03 09:28:48;;;;;;;13.93;5.63;;;;;;;;;;4919652;29;20221;-43
2022/11/03 09:31:16;;;;;;;13.32;5.90;;;;;;;;;;4903602;29;20695;-43
2022/11/03 09:33:43;;;;;;;19.52;6.15;;;;;;;;;;4919975;29;20272;-43
2022/11/03 09:36:10;;;;;;;11.25;5.55;;;;;;;;;;4920681;29;20578;-42
2022/11/03 09:38:37;;;;;;;16.13;5.80;;;;;;;;;;4919452;29;20830;-43
2022/11/03 09:41:04;;;;;;;16.23;6.43;;;;;;;;;;4903165;29;20220;-43
2022/11/03 09:43:52;;;;;;;15.95;5.50;;;;;;;;;;4919545;29;20279;-43
2022/11/03 09:46:19;;;;;;;14.40;5.53;;;;;;;;;;4903073;29;20224;-43
2022/11/03 09:48:46;;;;;;;15.45;5.80;;;;;;;;;;4919397;29;20205;-44
2022/11/03 09:51:18;;;;;;;13.05;5.47;;;;;;;;;;4919321;29;20201;-43
2022/11/03 09:53:46;;;;;;;12.23;4.90;;;;;;;;;;4903482;29;20205;-43
2022/11/03 09:56:15;;;;;;;14.43;5.10;;;;;;;;;;4919206;29;20231;-43
2022/11/03 09:58:42;;;;;;;16.15;5.43;;;;;;;;;;4902636;29;20232;-43
2022/11/03 10:01:10;;;;;;;12.18;4.40;;;;;;;;;;4887582;29;20591;-44
2022/11/03 10:03:38;;;;;;;12.52;5.20;;;;;;;;;;4902569;29;20212;-43
2022/11/03 10:06:05;;;;;;;13.38;4.15;;;;;;;;;;4919534;29;20224;-43
2022/11/03 10:08:40;;;;;;;11.48;4.47;;;;;;;;;;4902786;29;20212;-43
2022/11/03 10:11:08;;;;;;;9.57;4.68;;;;;;;;;;4918955;29;20205;-43
2022/11/03 10:13:38;;;;;;;15.02;3.85;;;;;;;;;;4886930;29;20652;-43
2022/11/03 10:16:07;;;;;;;14.95;4.47;;;;;;;;;;4887277;29;20255;-44
2022/11/03 10:18:35;;;;;;;11.80;3.90;;;;;;;;;;4902672;29;20199;-43
2022/11/03 10:21:05;;;;;;;11.82;3.63;;;;;;;;;;4918905;29;20567;-43
2022/11/03 10:23:32;;;;;;;9.57;3.22;;;;;;;;;;4918754;29;20632;-43
2022/11/03 10:26:10;;;;;;;12.77;4.05;;;;;;;;;;4918814;29;20232;-44
2022/11/03 10:28:39;;;;;;;12.40;4.50;;;;;;;;;;4918700;29;20212;-43
2022/11/03 10:31:18;;;;;;;7.40;3.13;;;;;;;;;;4918495;29;20264;-43
2022/11/03 10:33:53;;;;;;;12.60;4.00;;;;;;;;;;4902917;29;20208;-44
2022/11/03 10:36:26;;;;;;;10.10;3.55;;;;;;;;;;4919065;29;20226;-43
2022/11/03 10:38:54;;;;;;;8.50;3.70;;;;;;;;;;4902348;29;20271;-43
2022/11/03 10:41:22;;;;;;;12.07;4.82;;;;;;;;;;4902169;29;20212;-44
2022/11/03 10:43:58;;;;;;;15.85;4.53;;;;;;;;;;4918579;29;20204;-44
2022/11/03 10:46:25;;;;;;;12.10;3.95;;;;;;;;;;4918339;29;20659;-43
2022/11/03 10:49:18;;;;;;;10.70;4.05;;;;;;;;;;4899438;29;20680;-44
2022/11/03 10:51:48;;;;;;;12.13;4.60;;;;;;;;;;4884731;29;20182;-44
2022/11/03 10:54:17;;;;;;;11.57;4.32;;;;;;;;;;4902366;29;20232;-44
2022/11/03 10:56:45;;;;;;;8.73;4.18;;;;;;;;;;4918933;29;20205;-43
2022/11/03 10:59:26;;;;;;;12.88;4.15;;;;;;;;;;4918559;29;20209;-44
2022/11/03 11:01:53;;;;;;;11.20;4.18;;;;;;;;;;4918693;29;20193;-45
2022/11/03 11:04:20;;;;;;;11.77;4.07;;;;;;;;;;4902044;29;20219;-44
2022/11/03 11:06:48;;;;;;;12.20;4.60;;;;;;;;;;4901503;29;20228;-43
2022/11/03 11:09:26;;;;;;;12.55;4.30;;;;;;;;;;4902256;29;20200;-45
2022/11/03 11:12:06;;;;;;;14.18;4.47;;;;;;;;;;4902249;29;20200;-43
2022/11/03 11:14:35;;;;;;;12.07;4.40;;;;;;;;;;4901915;29;20240;-44
2022/11/03 11:17:03;;;;;;;9.75;3.45;;;;;;;;;;4919305;29;20200;-44
2022/11/03 11:20:09;;;;;;;11.55;3.80;;;;;;;;;;4905931;29;20205;-44
2022/11/03 11:22:36;;;;;;;12.05;3.40;;;;;;;;;;4921910;29;20212;-44
2022/11/03 11:25:03;;;;;;;13.18;3.85;;;;;;;;;;4905205;29;20239;-43
2022/11/03 11:27:30;;;;;;;10.15;3.90;;;;;;;;;;4922110;29;20233;-43
2022/11/03 11:29:58;;;;;;;8.60;2.60;;;;;;;;;;4922059;29;20212;-43
2022/11/03 11:32:41;;;;;;;10.07;2.75;;;;;;;;;;4921621;29;20652;-44
2022/11/03 11:35:10;;;;;;;8.95;3.20;;;;;;;;;;4921516;29;20213;-44
2022/11/03 11:37:37;;;;;;;8.80;2.85;;;;;;;;;;4921759;29;20221;-43
2022/11/03 11:40:24;;;;;;;12.57;3.17;;;;;;;;;;4905316;29;20216;-44
2022/11/03 11:43:00;;;;;;;9.82;3.00;;;;;;;;;;4921681;29;20224;-43
2022/11/03 11:46:05;;;;;;;11.52;2.83;;;;;;;;;;4921831;29;20185;-44
2022/11/03 11:48:32;;;;;;;10.75;3.20;;;;;;;;;;4921347;29;20219;-43
2022/11/03 11:51:01;;;;;;;11.38;3.38;;;;;;;;;;4905282;29;20284;-44
2022/11/03 11:53:31;;;;;;;13.02;3.75;;;;;;;;;;4921709;29;20229;-43
2022/11/03 11:56:00;;;;;;;10.75;4.00;;;;;;;;;;4905142;29;20282;-43
2022/11/03 11:58:34;;;;;;;13.77;3.67;;;;;;;;;;4904685;29;20212;-44
2022/11/03 12:01:21;;;;;;;16.00;4.57;;;;;;;;;;4905622;29;20208;-43
2022/11/03 12:03:50;;;;;;;10.20;4.40;;;;;;;;;;4921358;29;20201;-43
2022/11/03 12:06:34;;;;;;;11.43;4.03;;;;;;;;;;4904957;29;20232;-46
2022/11/03 12:09:15;;;;;;;12.30;4.85;;;;;;;;;;4921027;29;20760;-43
2022/11/03 12:11:52;;;;;;;12.85;4.30;;;;;;;;;;4904862;29;20209;-44
2022/11/03 12:14:27;;;;;;;12.82;4.57;;;;;;;;;;4921065;29;20280;-44
2022/11/03 12:17:18;;;;;;;10.75;3.55;;;;;;;;;;4921325;29;20201;-43
2022/11/03 12:19:50;;;;;;;9.40;2.88;;;;;;;;;;4920885;29;20220;-43
2022/11/03 12:22:23;;;;;;;10.25;3.83;;;;;;;;;;4920985;29;20201;-46
2022/11/03 12:24:51;;;;;;;11.35;3.60;;;;;;;;;;4904436;29;20588;-43
2022/11/03 12:27:18;;;;;;;12.63;3.88;;;;;;;;;;4920785;29;20236;-42
2022/11/03 12:29:45;;;;;;;11.07;3.53;;;;;;;;;;4920560;29;20215;-46
2022/11/03 12:32:12;;;;;;;7.60;3.40;;;;;;;;;;4920638;29;20255;-44
2022/11/03 12:35:00;;;;;;;11.23;3.30;;;;;;;;;;4920622;29;20221;-43
2022/11/03 12:37:27;;;;;;;10.32;2.80;;;;;;;;;;4904233;29;20631;-43
2022/11/03 12:39:54;;;;;;;7.95;3.30;;;;;;;;;;4920755;29;20219;-43
2022/11/03 12:42:23;;;;;;;9.93;3.33;;;;;;;;;;4920458;29;20213;-44
2022/11/03 12:44:51;;;;;;;9.50;2.80;;;;;;;;;;4920278;29;20216;-46
2022/11/03 12:47:19;;;;;;;7.97;3.08;;;;;;;;;;4903924;29;20225;-43
2022/11/03 12:49:46;;;;;;;8.10;2.75;;;;;;;;;;4920190;29;20213;-44
2022/11/03 12:52:13;;;;;;;10.90;3.40;;;;;;;;;;4920432;29;20200;-44
2022/11/03 12:54:41;;;;;;;10.73;3.55;;;;;;;;;;4920122;29;20204;-44
2022/11/03 12:57:08;;;;;;;7.18;3.33;;;;;;;;;;4920351;29;20208;-43
2022/11/03 12:59:35;;;;;;;7.75;2.70;;;;;;;;;;4920178;29;20208;-43
2022/11/03 13:02:03;;;;;;;12.00;3.42;;;;;;;;;;4920535;29;20204;-46
2022/11/03 13:04:30;;;;;;;10.48;3.13;;;;;;;;;;4920171;29;20220;-43
2022/11/03 13:06:57;;;;;;;9.20;3.33;;;;;;;;;;4919979;29;20609;-44
2022/11/03 13:09:24;;;;;;;9.55;3.35;;;;;;;;;;4919891;29;20201;-45
2022/11/03 13:14:38;;;;;;;10.43;2.80;;;;;;;;;;4918698;29;20240;-46
2022/11/03 13:17:10;;;;;;;9.05;2.83;;;;;;;;;;4919453;29;20196;-52
2022/11/03 13:19:37;;;;;;;14.32;2.75;;;;;;;;;;4919471;29;20192;-49
2022/11/03 13:22:04;;;;;;;11.48;2.90;;;;;;;;;;4919962;29;20201;-47
2022/11/03 13:24:31;;;;;;;61.13;26.45;;;;;;;;;;4919165;29;20205;-49
2022/11/03 13:26:58;;;;;;;52.65;20.05;;;;;;;;;;4902677;29;20763;-45
2022/11/03 13:29:25;;;;;;;41.72;16.90;;;;;;;;;;4913355;29;20551;-44
2022/11/03 13:31:59;;;;;;;13.60;6.78;;;;;;;;;;4918861;29;20229;-43
2022/11/03 13:34:26;;;;;;;11.43;2.72;;;;;;;;;;4918003;29;20229;-46
2022/11/03 13:36:54;;;;;;;8.73;2.90;;;;;;;;;;4918550;29;20565;-46
2022/11/03 13:39:21;;;;;;;10.90;3.17;;;;;;;;;;4914852;29;20232;-47
2022/11/03 13:41:48;;;;;;;7.72;2.70;;;;;;;;;;4902181;29;20232;-47
2022/11/03 13:44:15;;;;;;;6.43;3.00;;;;;;;;;;4917470;29;20240;-46
2022/11/03 13:46:42;;;;;;;15.70;5.00;;;;;;;;;;4918613;29;20239;-45
2022/11/03 13:49:09;;;;;;;15.57;5.75;;;;;;;;;;4917715;29;20232;-46
2022/11/03 13:51:56;;;;;;;8.63;3.60;;;;;;;;;;4918693;29;20225;-46
2022/11/03 13:54:23;;;;;;;9.02;3.30;;;;;;;;;;4929729;29;20235;-44
2022/11/03 13:57:10;;;;;;;11.20;2.97;;;;;;;;;;4924012;29;20219;-46
2022/11/03 13:59:57;;;;;;;7.03;2.38;;;;;;;;;;4929212;29;20259;-46
2022/11/03 14:02:38;;;;;;;7.13;2.67;;;;;;;;;;4931186;29;20220;-46
2022/11/03 14:05:25;;;;;;;165.65;62.28;;;;;;;;;;4928823;29;20228;-47
2022/11/03 14:07:52;;;;;;;78.57;33.22;;;;;;;;;;4937358;29;20231;-47
2022/11/03 14:10:19;;;;;;;23.73;9.07;;;;;;;;;;4927285;29;20233;-46
2022/11/03 14:12:46;;;;;;;11.13;4.55;;;;;;;;;;4930494;29;20232;-48
2022/11/03 14:15:13;;;;;;;8.95;3.30;;;;;;;;;;4922185;29;20265;-48
2022/11/03 14:17:40;;;;;;;8.65;3.67;;;;;;;;;;4918341;29;20304;-47
2022/11/03 14:20:10;;;;;;;13.20;4.30;;;;;;;;;;4927471;29;20241;-46
2022/11/03 14:22:38;;;;;;;10.15;2.90;;;;;;;;;;4901300;29;20257;-46
2022/11/03 14:25:06;;;;;;;9.38;3.10;;;;;;;;;;4916773;29;20244;-45
2022/11/03 14:27:33;;;;;;;9.15;2.83;;;;;;;;;;4919001;29;20237;-44
2022/11/03 14:30:01;;;;;;;9.20;2.80;;;;;;;;;;4916918;29;20240;-47
2022/11/03 14:32:28;;;;;;;10.25;3.60;;;;;;;;;;4918062;29;20252;-44
2022/11/03 14:34:55;;;;;;;15.65;6.72;;;;;;;;;;4917783;29;20197;-48
2022/11/03 14:37:24;;;;;;;11.40;3.70;;;;;;;;;;4918762;29;20219;-45
2022/11/03 14:39:51;;;;;;;9.43;2.67;;;;;;;;;;4918084;29;20208;-45
2022/11/03 14:42:18;;;;;;;8.02;2.88;;;;;;;;;;4918669;29;20213;-46
2022/11/03 14:44:46;;;;;;;6.55;2.95;;;;;;;;;;4917781;29;20221;-45
2022/11/03 14:47:18;;;;;;;12.55;3.67;;;;;;;;;;4918540;29;20220;-46
2022/11/03 14:49:45;;;;;;;9.20;3.10;;;;;;;;;;4901584;29;20617;-45
2022/11/03 14:52:13;;;;;;;7.72;2.65;;;;;;;;;;4919657;29;20291;-43
2022/11/03 14:54:40;;;;;;;9.73;2.60;;;;;;;;;;4904979;29;20220;-46
2022/11/03 14:57:08;;;;;;;6.70;2.42;;;;;;;;;;4922516;29;20308;-45
2022/11/03 14:59:36;;;;;;;11.07;2.63;;;;;;;;;;4905652;29;20641;-45
2022/11/03 15:02:04;;;;;;;9.15;3.08;;;;;;;;;;4922787;29;20643;-49
2022/11/03 15:04:32;;;;;;;6.15;2.55;;;;;;;;;;4905551;29;20514;-46
2022/11/03 15:06:59;;;;;;;12.52;3.05;;;;;;;;;;4922221;29;20291;-45
2022/11/03 15:09:26;;;;;;;14.50;4.32;;;;;;;;;;4922095;29;20215;-48